Time;durP1;ratioP1;P1;durP2;ratioP2;P2;SDS_P1;SDS_P2;PMS_P1;PMS_P2;Temp;Humidity;BMP_temperature;BMP_pressure;BME280_temperature;BME280_humidity;BME280_pressure;Samples;Min_cycle;Max_cycle;Signal;HPM_P1;HPM_P2
2021/03/29 00:00:27;;;;;;;66.43;31.95;;;;;;;;;;5095415;28;20034;-73
2021/03/29 00:02:53;;;;;;;;;;;;;;;;;;5114672;28;20023;-71
2021/03/29 00:05:20;;;;;;;70.18;32.47;;;;;;;;;;5095705;28;19903;-72
2021/03/29 00:07:49;;;;;;;66.18;30.95;;;;;;;;;;5095587;28;20019;-72
2021/03/29 00:10:15;;;;;;;62.70;31.27;;;;;;;;;;5113873;28;20027;-72
2021/03/29 00:12:43;;;;;;;61.42;29.42;;;;;;;;;;5095529;28;20024;-72
2021/03/29 00:15:11;;;;;;;59.33;27.65;;;;;;;;;;5113147;28;20112;-72
2021/03/29 00:17:38;;;;;;;62.35;28.77;;;;;;;;;;5096208;28;20031;-72
2021/03/29 00:20:04;;;;;;;;;;;;;;;;;;5099231;28;20485;-72
2021/03/29 00:22:30;;;;;;;56.25;25.08;;;;;;;;;;5099226;28;20031;-73
2021/03/29 00:24:56;;;;;;;62.30;28.20;;;;;;;;;;5117481;28;20016;-71
2021/03/29 00:27:23;;;;;;;64.07;28.25;;;;;;;;;;5099121;28;20042;-70
2021/03/29 00:29:49;;;;;;;68.55;28.63;;;;;;;;;;5099441;28;20023;-70
2021/03/29 00:32:15;;;;;;;67.30;30.23;;;;;;;;;;5099264;28;20116;-70
2021/03/29 00:34:41;;;;;;;58.70;28.50;;;;;;;;;;5099698;28;20496;-70
2021/03/29 00:37:08;;;;;;;66.78;28.80;;;;;;;;;;5099275;28;20477;-71
2021/03/29 00:39:36;;;;;;;59.45;28.75;;;;;;;;;;5117745;28;20054;-71
2021/03/29 00:42:04;;;;;;;54.67;27.38;;;;;;;;;;5098783;28;20019;-72
2021/03/29 00:44:31;;;;;;;52.00;28.88;;;;;;;;;;5117146;28;20024;-72
2021/03/29 00:46:58;;;;;;;52.15;25.10;;;;;;;;;;5117427;28;20020;-71
2021/03/29 00:49:24;;;;;;;48.47;23.98;;;;;;;;;;5098699;28;20057;-71
2021/03/29 00:51:51;;;;;;;46.58;24.77;;;;;;;;;;5098966;28;20092;-73
2021/03/29 00:54:17;;;;;;;46.63;24.92;;;;;;;;;;5117568;28;20153;-72
2021/03/29 00:56:44;;;;;;;49.05;23.48;;;;;;;;;;5098523;28;20067;-71
2021/03/29 00:59:10;;;;;;;47.17;23.30;;;;;;;;;;5099687;28;20088;-72
2021/03/29 01:01:45;;;;;;;42.90;20.88;;;;;;;;;;5098798;28;20024;-72
2021/03/29 01:04:12;;;;;;;46.10;20.63;;;;;;;;;;5116767;28;20027;-72
2021/03/29 01:06:40;;;;;;;47.30;21.77;;;;;;;;;;5117348;28;20102;-72
2021/03/29 01:09:08;;;;;;;40.08;19.80;;;;;;;;;;5117206;28;20019;-72
2021/03/29 01:11:36;;;;;;;44.67;21.88;;;;;;;;;;5098217;28;20077;-72
2021/03/29 01:14:07;;;;;;;48.17;21.08;;;;;;;;;;5098230;28;20050;-72
2021/03/29 01:16:36;;;;;;;44.35;21.63;;;;;;;;;;5116267;28;20108;-72
2021/03/29 01:19:04;;;;;;;45.47;21.38;;;;;;;;;;5116510;28;20418;-70
2021/03/29 01:21:49;;;;;;;41.33;21.92;;;;;;;;;;5099250;28;20516;-70
2021/03/29 01:24:25;;;;;;;38.05;20.13;;;;;;;;;;5098036;28;20106;-70
2021/03/29 01:26:52;;;;;;;40.38;20.35;;;;;;;;;;5116434;28;20098;-70
2021/03/29 01:29:18;;;;;;;38.80;21.08;;;;;;;;;;5116158;28;20058;-70
2021/03/29 01:31:46;;;;;;;34.55;19.02;;;;;;;;;;5096760;28;20038;-70
2021/03/29 01:34:13;;;;;;;36.45;19.25;;;;;;;;;;5116840;28;20019;-71
2021/03/29 01:36:40;;;;;;;39.33;20.17;;;;;;;;;;5098156;28;20030;-70
2021/03/29 01:39:07;;;;;;;36.88;19.50;;;;;;;;;;5098855;28;20020;-70
2021/03/29 01:41:34;;;;;;;30.20;17.30;;;;;;;;;;5100430;28;20463;-72
2021/03/29 01:44:01;;;;;;;34.97;19.15;;;;;;;;;;5100060;28;20050;-73
2021/03/29 01:46:28;;;;;;;27.73;17.27;;;;;;;;;;5098637;28;20032;-72
2021/03/29 01:48:55;;;;;;;41.05;19.77;;;;;;;;;;5098475;28;20047;-73
2021/03/29 01:51:21;;;;;;;34.37;16.07;;;;;;;;;;5115722;28;20016;-72
2021/03/29 01:53:47;;;;;;;32.05;17.88;;;;;;;;;;5098332;28;20598;-73
2021/03/29 01:56:14;;;;;;;29.50;17.23;;;;;;;;;;5097729;28;20019;-73
2021/03/29 01:58:40;;;;;;;33.90;17.33;;;;;;;;;;5115750;28;20422;-72
2021/03/29 02:01:11;;;;;;;39.20;15.50;;;;;;;;;;5097708;28;20026;-73
2021/03/29 02:03:37;;;;;;;35.75;17.80;;;;;;;;;;5097664;28;20392;-71
2021/03/29 02:06:05;;;;;;;30.08;17.15;;;;;;;;;;5115291;28;20532;-73
2021/03/29 02:08:32;;;;;;;33.78;17.65;;;;;;;;;;5098107;28;20115;-72
2021/03/29 02:10:58;;;;;;;;;;;;;;;;;;5116348;28;20012;-72
2021/03/29 02:13:30;;;;;;;36.90;17.45;;;;;;;;;;5093369;28;20270;-72
2021/03/29 02:16:03;;;;;;;37.90;17.58;;;;;;;;;;5111047;28;20381;-73
2021/03/29 02:18:31;;;;;;;30.67;17.02;;;;;;;;;;5095551;28;20043;-72
2021/03/29 02:21:02;;;;;;;31.27;15.55;;;;;;;;;;5095138;28;20012;-73
2021/03/29 02:23:29;;;;;;;32.85;18.30;;;;;;;;;;5111420;28;20020;-71
2021/03/29 02:25:56;;;;;;;28.63;17.60;;;;;;;;;;5094841;28;20497;-71
2021/03/29 02:28:22;;;;;;;26.87;15.60;;;;;;;;;;5094472;28;20645;-72
2021/03/29 02:30:48;;;;;;;33.65;17.15;;;;;;;;;;5095018;28;20051;-71
2021/03/29 02:33:16;;;;;;;32.45;16.50;;;;;;;;;;5094602;28;20028;-71
2021/03/29 02:35:42;;;;;;;28.60;17.50;;;;;;;;;;5110678;28;20030;-71
2021/03/29 02:38:11;;;;;;;25.67;14.52;;;;;;;;;;5110573;28;20045;-71
2021/03/29 02:40:37;;;;;;;30.50;17.25;;;;;;;;;;5110212;28;20037;-73
2021/03/29 02:43:04;;;;;;;27.13;16.33;;;;;;;;;;5094409;28;20470;-72
2021/03/29 02:45:33;;;;;;;32.55;16.50;;;;;;;;;;5094730;28;20027;-72
2021/03/29 02:48:06;;;;;;;31.52;16.80;;;;;;;;;;5110313;28;20101;-71
2021/03/29 02:50:34;;;;;;;26.95;15.82;;;;;;;;;;5110329;28;20047;-72
2021/03/29 02:53:03;;;;;;;29.77;18.15;;;;;;;;;;5110200;28;20024;-71
2021/03/29 02:55:30;;;;;;;34.30;19.30;;;;;;;;;;5094265;28;20024;-72
2021/03/29 02:57:58;;;;;;;27.35;16.48;;;;;;;;;;5095036;28;20027;-72
2021/03/29 03:00:25;;;;;;;34.22;18.23;;;;;;;;;;5094685;28;20051;-71
2021/03/29 03:02:53;;;;;;;30.88;18.50;;;;;;;;;;5093920;28;20053;-71
2021/03/29 03:05:21;;;;;;;42.50;18.10;;;;;;;;;;5110060;28;20115;-71
2021/03/29 03:07:47;;;;;;;28.13;16.92;;;;;;;;;;5110059;28;20070;-71
2021/03/29 03:10:14;;;;;;;30.30;18.02;;;;;;;;;;5094030;28;20069;-72
2021/03/29 03:12:41;;;;;;;31.85;17.58;;;;;;;;;;5109913;28;20070;-71
2021/03/29 03:15:08;;;;;;;30.50;17.20;;;;;;;;;;5109461;28;20501;-71
2021/03/29 03:17:35;;;;;;;32.25;17.20;;;;;;;;;;5109637;28;20032;-71
2021/03/29 03:20:02;;;;;;;27.40;16.67;;;;;;;;;;5109848;28;20081;-71
2021/03/29 03:22:28;;;;;;;28.42;15.40;;;;;;;;;;5110622;28;20488;-71
2021/03/29 03:24:55;;;;;;;32.92;17.55;;;;;;;;;;5102232;28;20366;-71
2021/03/29 03:27:21;;;;;;;34.33;17.08;;;;;;;;;;5093070;28;20024;-72
2021/03/29 03:29:47;;;;;;;26.67;15.65;;;;;;;;;;5109127;28;20084;-72
2021/03/29 03:32:14;;;;;;;31.20;15.52;;;;;;;;;;5101695;28;20024;-72
2021/03/29 03:34:41;;;;;;;26.83;13.90;;;;;;;;;;5102692;28;20537;-72
2021/03/29 03:37:08;;;;;;;29.98;15.30;;;;;;;;;;5093694;28;20032;-72
2021/03/29 03:39:41;;;;;;;30.25;16.77;;;;;;;;;;5097848;28;20055;-74
2021/03/29 03:42:07;;;;;;;33.67;17.80;;;;;;;;;;5099476;28;20095;-72
2021/03/29 03:44:35;;;;;;;34.00;18.10;;;;;;;;;;5101044;28;20586;-73
2021/03/29 03:47:01;;;;;;;36.97;18.52;;;;;;;;;;5100596;28;20020;-73
2021/03/29 03:49:27;;;;;;;61.42;29.08;;;;;;;;;;5106586;28;20112;-73
2021/03/29 03:51:55;;;;;;;135.93;68.60;;;;;;;;;;5103115;28;20035;-74
2021/03/29 03:54:21;;;;;;;227.40;101.93;;;;;;;;;;5101726;28;20027;-73
2021/03/29 03:56:48;;;;;;;281.38;127.15;;;;;;;;;;5105693;28;20073;-73
2021/03/29 03:59:14;;;;;;;320.97;153.13;;;;;;;;;;5108115;28;20020;-73
2021/03/29 04:01:40;;;;;;;329.15;147.40;;;;;;;;;;5112339;28;20259;-73
2021/03/29 04:04:06;;;;;;;316.63;138.95;;;;;;;;;;5115694;28;20103;-73
2021/03/29 04:06:32;;;;;;;229.90;113.90;;;;;;;;;;5115934;28;20062;-73
2021/03/29 04:08:58;;;;;;;199.38;93.93;;;;;;;;;;5117191;28;20389;-73
2021/03/29 04:11:27;;;;;;;160.82;74.13;;;;;;;;;;5116489;28;20027;-73
2021/03/29 04:13:53;;;;;;;148.27;73.30;;;;;;;;;;5115497;28;20047;-73
2021/03/29 04:16:19;;;;;;;148.20;72.78;;;;;;;;;;5117049;28;20024;-74
2021/03/29 04:18:45;;;;;;;162.20;80.90;;;;;;;;;;5117015;28;20026;-73
2021/03/29 04:21:12;;;;;;;160.40;77.90;;;;;;;;;;5116618;28;20023;-73
2021/03/29 04:23:38;;;;;;;158.13;80.85;;;;;;;;;;5117581;28;20054;-74
2021/03/29 04:26:05;;;;;;;163.85;80.20;;;;;;;;;;5117822;28;20110;-73
2021/03/29 04:28:31;;;;;;;174.95;79.38;;;;;;;;;;5116471;28;20043;-74
2021/03/29 04:30:57;;;;;;;158.63;74.03;;;;;;;;;;5118565;28;20024;-73
2021/03/29 04:33:24;;;;;;;152.27;69.38;;;;;;;;;;5117414;28;20035;-74
2021/03/29 04:35:51;;;;;;;153.75;71.25;;;;;;;;;;5117682;28;20047;-71
2021/03/29 04:38:17;;;;;;;188.95;89.63;;;;;;;;;;5116251;28;20027;-71
2021/03/29 04:40:43;;;;;;;201.57;88.72;;;;;;;;;;5117531;28;20350;-74
2021/03/29 04:43:09;;;;;;;170.52;70.07;;;;;;;;;;5116429;28;20072;-74
2021/03/29 04:45:36;;;;;;;130.02;60.47;;;;;;;;;;5117769;28;20024;-73
2021/03/29 04:48:02;;;;;;;119.03;50.25;;;;;;;;;;5115550;28;20020;-74
2021/03/29 04:50:28;;;;;;;83.03;39.17;;;;;;;;;;5117371;28;20031;-72
2021/03/29 04:52:54;;;;;;;65.15;30.02;;;;;;;;;;5117306;28;20028;-71
2021/03/29 04:55:20;;;;;;;43.53;21.63;;;;;;;;;;5115670;28;20023;-72
2021/03/29 04:57:46;;;;;;;45.50;22.73;;;;;;;;;;5116000;28;20024;-72
2021/03/29 05:00:13;;;;;;;42.85;20.63;;;;;;;;;;5115284;28;20023;-72
2021/03/29 05:02:39;;;;;;;40.67;22.17;;;;;;;;;;5117454;28;20027;-72
2021/03/29 05:05:06;;;;;;;43.90;21.33;;;;;;;;;;5115530;28;20039;-74
2021/03/29 05:07:33;;;;;;;48.30;22.52;;;;;;;;;;5115473;28;20023;-75
2021/03/29 05:09:59;;;;;;;55.05;27.30;;;;;;;;;;5116994;28;20080;-71
2021/03/29 05:12:25;;;;;;;65.38;32.78;;;;;;;;;;5115613;28;20032;-70
2021/03/29 05:14:52;;;;;;;86.63;43.50;;;;;;;;;;5114877;28;20058;-68
2021/03/29 05:17:19;;;;;;;94.85;46.40;;;;;;;;;;5115568;28;20031;-68
2021/03/29 05:19:45;;;;;;;87.82;43.40;;;;;;;;;;5116790;28;20050;-68
2021/03/29 05:22:12;;;;;;;88.88;36.78;;;;;;;;;;5115375;28;20157;-69
2021/03/29 05:24:38;;;;;;;90.50;40.80;;;;;;;;;;5115692;28;20020;-67
2021/03/29 05:27:05;;;;;;;81.07;41.30;;;;;;;;;;5116657;28;20059;-65
2021/03/29 05:29:43;;;;;;;87.25;41.08;;;;;;;;;;5116316;28;20073;-69
2021/03/29 05:32:23;;;;;;;65.10;36.05;;;;;;;;;;5116814;28;20024;-69
2021/03/29 05:34:51;;;;;;;75.93;37.10;;;;;;;;;;5115212;28;20058;-68
2021/03/29 05:37:17;;;;;;;;;;;;;;;;;;5116544;28;20065;-68
2021/03/29 05:39:45;;;;;;;58.33;30.67;;;;;;;;;;5116418;28;19904;-68
2021/03/29 05:42:11;;;;;;;52.22;31.17;;;;;;;;;;5116352;28;20036;-69
2021/03/29 05:44:37;;;;;;;60.58;33.20;;;;;;;;;;5116025;28;20028;-69
2021/03/29 05:47:04;;;;;;;53.05;33.55;;;;;;;;;;5116318;28;20092;-67
2021/03/29 05:49:31;;;;;;;47.60;32.20;;;;;;;;;;5115954;28;20081;-70
2021/03/29 05:51:57;;;;;;;38.60;20.75;;;;;;;;;;5115634;28;20461;-68
2021/03/29 05:54:24;;;;;;;46.35;25.00;;;;;;;;;;5116121;28;20026;-69
2021/03/29 05:56:50;;;;;;;40.97;21.92;;;;;;;;;;5114421;28;20045;-69
2021/03/29 05:59:20;;;;;;;47.75;24.25;;;;;;;;;;5114959;28;20027;-71
2021/03/29 06:01:48;;;;;;;70.95;39.30;;;;;;;;;;5116021;28;20020;-67
2021/03/29 06:04:14;;;;;;;75.28;44.55;;;;;;;;;;5115959;28;20024;-70
2021/03/29 06:06:41;;;;;;;67.75;38.80;;;;;;;;;;5115998;28;20027;-69
2021/03/29 06:09:08;;;;;;;84.53;48.78;;;;;;;;;;5116098;28;20028;-69
2021/03/29 06:11:36;;;;;;;80.87;44.97;;;;;;;;;;5115526;28;20069;-70
2021/03/29 06:14:11;;;;;;;73.38;37.25;;;;;;;;;;5124375;27;20076;-72
2021/03/29 06:16:56;;;;;;;60.40;34.97;;;;;;;;;;5135821;27;20030;-68
2021/03/29 06:19:40;;;;;;;50.92;27.25;;;;;;;;;;5136400;27;20054;-66
2021/03/29 06:22:17;;;;;;;45.38;25.70;;;;;;;;;;5117727;27;20023;-72
2021/03/29 06:25:03;;;;;;;36.85;15.82;;;;;;;;;;5135763;27;20131;-72
2021/03/29 06:27:48;;;;;;;25.42;15.10;;;;;;;;;;5117901;27;20380;-72
2021/03/29 06:30:19;;;;;;;23.48;12.00;;;;;;;;;;5117889;27;20489;-72
2021/03/29 06:33:04;;;;;;;20.55;8.75;;;;;;;;;;5135548;27;20073;-72
2021/03/29 06:35:38;;;;;;;20.65;9.88;;;;;;;;;;5117709;27;20449;-72
2021/03/29 06:38:14;;;;;;;57.45;25.30;;;;;;;;;;5135803;27;20594;-72
2021/03/29 06:41:00;;;;;;;49.83;22.00;;;;;;;;;;5117610;27;20373;-72
2021/03/29 06:43:30;;;;;;;48.20;23.00;;;;;;;;;;5135863;27;20019;-72
2021/03/29 06:46:01;;;;;;;33.08;16.95;;;;;;;;;;5116881;27;20421;-72
2021/03/29 06:48:32;;;;;;;30.83;13.00;;;;;;;;;;5117314;27;20361;-72
2021/03/29 06:51:08;;;;;;;9.85;6.10;;;;;;;;;;5136405;27;20072;-72
2021/03/29 06:53:34;;;;;;;14.13;7.65;;;;;;;;;;5116695;27;20023;-72
2021/03/29 06:56:19;;;;;;;16.23;6.25;;;;;;;;;;5135460;27;20094;-72
2021/03/29 06:58:45;;;;;;;15.75;6.50;;;;;;;;;;5117846;27;20027;-72
2021/03/29 07:01:15;;;;;;;15.68;7.03;;;;;;;;;;5134833;27;20476;-73
2021/03/29 07:03:42;;;;;;;11.23;5.97;;;;;;;;;;5135291;27;20084;-72
2021/03/29 07:06:08;;;;;;;5.13;3.08;;;;;;;;;;5117417;27;20076;-72
2021/03/29 07:08:35;;;;;;;4.75;2.47;;;;;;;;;;5116725;27;20028;-72
2021/03/29 07:11:01;;;;;;;7.50;3.40;;;;;;;;;;5117081;27;20411;-72
2021/03/29 07:13:28;;;;;;;10.85;5.60;;;;;;;;;;5112654;28;20585;-72
2021/03/29 07:15:54;;;;;;;;;;;;;;;;;;5114391;28;20041;-72
2021/03/29 07:18:20;;;;;;;7.50;3.63;;;;;;;;;;5113335;28;20339;-71
2021/03/29 07:20:47;;;;;;;9.40;2.67;;;;;;;;;;5112955;28;20093;-72
2021/03/29 07:23:13;;;;;;;12.27;5.25;;;;;;;;;;5114475;28;20030;-72
2021/03/29 07:25:40;;;;;;;10.10;4.00;;;;;;;;;;5112886;28;20031;-72
2021/03/29 07:28:11;;;;;;;8.20;2.80;;;;;;;;;;5112794;28;20106;-72
2021/03/29 07:30:47;;;;;;;7.80;2.75;;;;;;;;;;5114374;28;20422;-72
2021/03/29 07:33:14;;;;;;;16.53;6.57;;;;;;;;;;5112837;28;20082;-73
2021/03/29 07:35:45;;;;;;;12.00;4.03;;;;;;;;;;5114024;28;20746;-73
2021/03/29 07:38:11;;;;;;;11.02;4.63;;;;;;;;;;5114545;28;20405;-73
2021/03/29 07:40:39;;;;;;;8.15;4.60;;;;;;;;;;5114291;28;20020;-72
2021/03/29 07:43:05;;;;;;;;;;;;;;;;;;5113011;28;20059;-75
2021/03/29 07:45:34;;;;;;;19.23;9.05;;;;;;;;;;5114234;28;19904;-69
2021/03/29 07:48:00;;;;;;;14.07;5.35;;;;;;;;;;5114843;28;20461;-70
2021/03/29 07:50:26;;;;;;;8.27;4.43;;;;;;;;;;5114131;28;20103;-70
2021/03/29 07:52:54;;;;;;;12.32;6.03;;;;;;;;;;5112787;28;20517;-69
2021/03/29 07:55:20;;;;;;;;;;;;;;;;;;5114266;28;20462;-71
2021/03/29 07:57:46;;;;;;;5.38;4.65;;;;;;;;;;5112844;28;19912;-71
2021/03/29 08:00:12;;;;;;;7.10;4.05;;;;;;;;;;5114056;28;20046;-71
2021/03/29 08:02:39;;;;;;;7.95;3.35;;;;;;;;;;5112435;28;20049;-71
2021/03/29 08:05:06;;;;;;;6.60;2.65;;;;;;;;;;5112678;28;20503;-72
2021/03/29 08:07:55;;;;;;;7.38;3.25;;;;;;;;;;5113588;28;20026;-71
2021/03/29 08:10:41;;;;;;;13.65;4.90;;;;;;;;;;5112401;28;20094;-71
2021/03/29 08:13:07;;;;;;;9.45;3.17;;;;;;;;;;5115071;28;20028;-71
2021/03/29 08:15:52;;;;;;;10.38;2.80;;;;;;;;;;5134325;28;20019;-71
2021/03/29 08:18:18;;;;;;;4.03;1.95;;;;;;;;;;5134371;28;20035;-71
2021/03/29 08:20:52;;;;;;;6.75;2.10;;;;;;;;;;5134685;28;20080;-72
2021/03/29 08:23:38;;;;;;;3.58;1.48;;;;;;;;;;5115739;28;20050;-71
2021/03/29 08:26:15;;;;;;;5.95;1.55;;;;;;;;;;5134403;28;20480;-70
2021/03/29 08:28:59;;;;;;;2.00;0.88;;;;;;;;;;5134646;28;20027;-70
2021/03/29 08:31:44;;;;;;;2.35;1.58;;;;;;;;;;5115177;28;20031;-72
2021/03/29 08:34:11;;;;;;;2.40;0.93;;;;;;;;;;5115905;28;20026;-71
2021/03/29 08:36:38;;;;;;;3.53;1.15;;;;;;;;;;5116027;28;20422;-71
2021/03/29 08:39:04;;;;;;;;;;;;;;;;;;5134393;27;20023;-70
2021/03/29 08:41:30;;;;;;;5.05;1.63;;;;;;;;;;5119675;27;19952;-70
2021/03/29 08:43:57;;;;;;;4.97;1.67;;;;;;;;;;5138104;27;20098;-70
2021/03/29 08:46:24;;;;;;;2.28;1.42;;;;;;;;;;5137425;27;20152;-70
2021/03/29 08:48:50;;;;;;;;;;;;;;;;;;5138130;27;20106;-71
2021/03/29 08:51:21;;;;;;;2.88;1.52;;;;;;;;;;5137615;27;19947;-71
2021/03/29 08:53:47;;;;;;;4.03;1.88;;;;;;;;;;5137481;27;20033;-71
2021/03/29 08:56:13;;;;;;;2.72;1.80;;;;;;;;;;5138027;27;20028;-71
2021/03/29 08:58:39;;;;;;;13.80;4.32;;;;;;;;;;5137210;27;20023;-71
2021/03/29 09:01:05;;;;;;;7.32;2.58;;;;;;;;;;5119360;27;20485;-71
2021/03/29 09:03:31;;;;;;;5.57;3.17;;;;;;;;;;5138223;27;20031;-71
2021/03/29 09:06:12;;;;;;;3.85;1.60;;;;;;;;;;5118955;27;20108;-71
2021/03/29 09:08:39;;;;;;;5.07;2.17;;;;;;;;;;5119520;27;20400;-71
2021/03/29 09:11:05;;;;;;;3.58;1.55;;;;;;;;;;5137257;27;20062;-71
2021/03/29 09:13:31;;;;;;;5.97;2.35;;;;;;;;;;5115375;28;20043;-71
2021/03/29 09:15:58;;;;;;;2.85;1.88;;;;;;;;;;5115841;28;20030;-70
2021/03/29 09:18:27;;;;;;;11.35;3.28;;;;;;;;;;5115542;28;20023;-71
2021/03/29 09:20:54;;;;;;;3.65;2.38;;;;;;;;;;5115169;28;20072;-70
2021/03/29 09:23:28;;;;;;;3.53;2.22;;;;;;;;;;5115476;28;20023;-70
2021/03/29 09:25:55;;;;;;;3.90;1.73;;;;;;;;;;5116834;28;20035;-72
2021/03/29 09:30:56;;;;;;;10.20;3.22;;;;;;;;;;5116731;28;20042;-71
2021/03/29 09:33:22;;;;;;;2.38;1.85;;;;;;;;;;5115219;28;20477;-72
2021/03/29 09:35:49;;;;;;;6.90;1.73;;;;;;;;;;5115255;28;20035;-72
2021/03/29 09:38:15;;;;;;;7.75;3.22;;;;;;;;;;5116198;28;20051;-70
2021/03/29 09:40:42;;;;;;;6.37;2.70;;;;;;;;;;5116104;28;20386;-70
2021/03/29 09:43:22;;;;;;;5.40;1.67;;;;;;;;;;5115097;28;20293;-70
2021/03/29 09:45:48;;;;;;;4.75;2.38;;;;;;;;;;5116067;28;20024;-70
2021/03/29 09:48:15;;;;;;;5.20;2.80;;;;;;;;;;5116623;28;20024;-70
2021/03/29 09:50:45;;;;;;;4.82;2.50;;;;;;;;;;5115689;28;20019;-70
2021/03/29 09:53:16;;;;;;;3.08;2.13;;;;;;;;;;5115757;28;20027;-70
2021/03/29 09:55:47;;;;;;;3.30;1.92;;;;;;;;;;5114765;28;20490;-70
2021/03/29 09:58:30;;;;;;;4.15;1.70;;;;;;;;;;5114472;28;20019;-70
2021/03/29 10:01:04;;;;;;;11.48;2.30;;;;;;;;;;5116046;28;20110;-70
2021/03/29 10:03:30;;;;;;;3.20;1.70;;;;;;;;;;5116572;28;20365;-70
2021/03/29 10:05:56;;;;;;;6.10;1.77;;;;;;;;;;5114343;28;20462;-70
2021/03/29 10:08:30;;;;;;;7.50;2.57;;;;;;;;;;5116236;28;20023;-71
2021/03/29 10:11:00;;;;;;;6.07;2.22;;;;;;;;;;5116289;28;20032;-70
2021/03/29 10:13:37;;;;;;;3.60;1.75;;;;;;;;;;5113727;28;20101;-70
2021/03/29 10:16:19;;;;;;;3.50;2.63;;;;;;;;;;5115108;28;20416;-70
2021/03/29 10:18:46;;;;;;;5.90;2.85;;;;;;;;;;5115515;28;20024;-70
2021/03/29 10:21:12;;;;;;;5.13;1.48;;;;;;;;;;5114322;28;20023;-67
2021/03/29 10:23:42;;;;;;;5.18;1.60;;;;;;;;;;5115882;28;20028;-69
2021/03/29 10:26:20;;;;;;;5.35;2.00;;;;;;;;;;5114033;28;20039;-69
2021/03/29 10:28:53;;;;;;;6.07;2.65;;;;;;;;;;5115671;28;20076;-69
2021/03/29 10:31:19;;;;;;;6.90;2.63;;;;;;;;;;5115408;28;20485;-69
2021/03/29 10:33:45;;;;;;;5.57;1.88;;;;;;;;;;5114779;28;20027;-69
2021/03/29 10:36:15;;;;;;;4.13;1.52;;;;;;;;;;5115369;28;20028;-67
2021/03/29 10:38:42;;;;;;;6.47;2.13;;;;;;;;;;5115889;28;20030;-69
2021/03/29 10:41:08;;;;;;;6.00;1.63;;;;;;;;;;5115303;28;20020;-67
2021/03/29 10:43:34;;;;;;;5.35;2.28;;;;;;;;;;5115711;28;20035;-67
2021/03/29 10:46:00;;;;;;;5.30;2.97;;;;;;;;;;5115190;28;20027;-67
2021/03/29 10:48:26;;;;;;;6.38;1.83;;;;;;;;;;5115066;28;20050;-67
2021/03/29 10:50:53;;;;;;;8.10;1.83;;;;;;;;;;5115079;28;20073;-67
2021/03/29 10:53:19;;;;;;;8.13;1.75;;;;;;;;;;5114937;28;20024;-68
2021/03/29 10:55:45;;;;;;;4.90;1.77;;;;;;;;;;5114383;28;20388;-66
2021/03/29 10:58:11;;;;;;;6.03;2.40;;;;;;;;;;5115193;28;20106;-67
2021/03/29 11:00:37;;;;;;;7.18;2.08;;;;;;;;;;5115141;28;20023;-67
2021/03/29 11:03:04;;;;;;;5.70;2.53;;;;;;;;;;5114028;28;20067;-67
2021/03/29 11:05:30;;;;;;;3.03;1.95;;;;;;;;;;5113537;28;20015;-67
2021/03/29 11:07:56;;;;;;;9.57;3.30;;;;;;;;;;5114742;28;20466;-67
2021/03/29 11:10:22;;;;;;;10.20;4.72;;;;;;;;;;5114711;28;20031;-67
2021/03/29 11:12:48;;;;;;;11.43;4.35;;;;;;;;;;5114557;28;20482;-67
2021/03/29 11:15:14;;;;;;;6.95;2.90;;;;;;;;;;5133965;27;20055;-67
2021/03/29 11:17:41;;;;;;;5.13;1.93;;;;;;;;;;5135173;27;20072;-67
2021/03/29 11:20:07;;;;;;;5.75;1.85;;;;;;;;;;5135140;27;20037;-67
2021/03/29 11:22:33;;;;;;;7.53;3.70;;;;;;;;;;5134937;27;20023;-66
2021/03/29 11:24:59;;;;;;;4.60;2.95;;;;;;;;;;5135602;27;20069;-67
2021/03/29 11:27:26;;;;;;;5.57;3.10;;;;;;;;;;5134998;27;20047;-67
2021/03/29 11:29:52;;;;;;;8.63;2.30;;;;;;;;;;5134392;27;20423;-66
2021/03/29 11:32:19;;;;;;;6.47;2.00;;;;;;;;;;5134873;27;20031;-67
2021/03/29 11:34:45;;;;;;;6.47;3.13;;;;;;;;;;5134968;27;20063;-67
2021/03/29 11:37:11;;;;;;;6.77;2.77;;;;;;;;;;5134394;27;20023;-67
2021/03/29 11:39:37;;;;;;;4.17;2.33;;;;;;;;;;5134897;27;20275;-67
2021/03/29 11:42:04;;;;;;;8.27;2.55;;;;;;;;;;5135101;27;20035;-68
2021/03/29 11:44:30;;;;;;;4.00;2.20;;;;;;;;;;5134608;27;20023;-67
2021/03/29 11:46:57;;;;;;;3.60;1.73;;;;;;;;;;5134606;27;20094;-68
2021/03/29 11:49:23;;;;;;;6.38;2.55;;;;;;;;;;5134785;27;20050;-66
2021/03/29 11:51:49;;;;;;;5.38;2.47;;;;;;;;;;5133990;28;20385;-65
2021/03/29 11:54:15;;;;;;;5.93;2.20;;;;;;;;;;5134378;28;20079;-66
2021/03/29 11:56:41;;;;;;;9.95;3.40;;;;;;;;;;5134547;28;20486;-66
2021/03/29 11:59:08;;;;;;;4.97;2.30;;;;;;;;;;5134627;28;20019;-66
2021/03/29 12:04:18;;;;;;;7.50;2.10;;;;;;;;;;5134264;28;20053;-66
2021/03/29 12:06:49;;;;;;;5.15;1.38;;;;;;;;;;5135207;28;20019;-65
2021/03/29 12:09:27;;;;;;;7.55;2.90;;;;;;;;;;5134545;28;20016;-65
2021/03/29 12:12:00;;;;;;;3.85;2.28;;;;;;;;;;5134308;28;20020;-66
2021/03/29 12:14:31;;;;;;;10.52;3.58;;;;;;;;;;5135433;27;20148;-67
2021/03/29 12:16:57;;;;;;;4.88;2.28;;;;;;;;;;5138713;27;20035;-66
2021/03/29 12:19:24;;;;;;;6.37;3.50;;;;;;;;;;5117881;27;20043;-67
2021/03/29 12:21:52;;;;;;;4.60;3.20;;;;;;;;;;5137336;27;20023;-66
2021/03/29 12:24:23;;;;;;;3.35;2.70;;;;;;;;;;5138234;27;20019;-66
2021/03/29 12:26:49;;;;;;;6.72;2.13;;;;;;;;;;5137623;27;20020;-68
2021/03/29 12:29:36;;;;;;;5.32;1.90;;;;;;;;;;5137105;27;20424;-70
2021/03/29 12:32:03;;;;;;;3.78;1.55;;;;;;;;;;5118750;27;20686;-68
2021/03/29 12:34:30;;;;;;;5.28;1.52;;;;;;;;;;5137255;27;20027;-62
2021/03/29 12:36:57;;;;;;;5.68;2.05;;;;;;;;;;5136778;27;20472;-67
2021/03/29 12:39:37;;;;;;;3.63;1.65;;;;;;;;;;5137097;27;20054;-71
2021/03/29 12:42:05;;;;;;;4.78;1.55;;;;;;;;;;5136915;27;20022;-72
2021/03/29 12:44:34;;;;;;;3.83;2.22;;;;;;;;;;5117822;27;20015;-72
2021/03/29 12:47:03;;;;;;;5.43;1.80;;;;;;;;;;5136445;27;20023;-74
2021/03/29 12:49:29;;;;;;;3.35;2.13;;;;;;;;;;5136940;27;20513;-69
2021/03/29 12:51:57;;;;;;;4.80;1.67;;;;;;;;;;5136028;27;20031;-71
2021/03/29 12:54:26;;;;;;;10.02;3.13;;;;;;;;;;5136854;27;20030;-69
2021/03/29 12:56:52;;;;;;;10.50;2.78;;;;;;;;;;5118643;27;20015;-69
2021/03/29 12:59:20;;;;;;;3.90;2.10;;;;;;;;;;5117699;27;20061;-67
2021/03/29 13:01:46;;;;;;;11.55;3.33;;;;;;;;;;5136514;27;20015;-66
2021/03/29 13:04:35;;;;;;;8.43;3.63;;;;;;;;;;5137154;27;20354;-66
2021/03/29 13:09:45;;;;;;;5.13;1.70;;;;;;;;;;5136831;27;20076;-64
2021/03/29 13:12:12;;;;;;;6.80;2.13;;;;;;;;;;5135901;27;20057;-65
2021/03/29 13:14:56;;;;;;;2.20;1.00;;;;;;;;;;5135864;27;20039;-65
2021/03/29 13:17:23;;;;;;;7.03;1.92;;;;;;;;;;5136711;27;20239;-66
2021/03/29 13:19:49;;;;;;;6.88;1.70;;;;;;;;;;5136245;27;20023;-65
2021/03/29 13:22:15;;;;;;;6.90;1.55;;;;;;;;;;5135791;27;20027;-65
2021/03/29 13:24:42;;;;;;;3.27;1.33;;;;;;;;;;5136524;27;20057;-69
2021/03/29 13:27:08;;;;;;;6.88;2.08;;;;;;;;;;5135913;27;20243;-66
2021/03/29 13:29:35;;;;;;;5.15;2.10;;;;;;;;;;5136003;27;20100;-65
2021/03/29 13:32:01;;;;;;;3.00;1.40;;;;;;;;;;5135995;27;20023;-68
2021/03/29 13:34:27;;;;;;;5.78;2.38;;;;;;;;;;5136398;27;20015;-67
2021/03/29 13:36:53;;;;;;;3.65;1.15;;;;;;;;;;5134997;27;20377;-65
2021/03/29 13:39:19;;;;;;;5.85;2.00;;;;;;;;;;5135724;27;20026;-66
2021/03/29 13:41:45;;;;;;;6.32;2.22;;;;;;;;;;5135738;27;20110;-66
2021/03/29 13:44:12;;;;;;;5.03;2.28;;;;;;;;;;5135742;27;20020;-66
2021/03/29 13:46:38;;;;;;;10.07;2.42;;;;;;;;;;5136120;27;20015;-64
2021/03/29 13:49:04;;;;;;;3.70;1.58;;;;;;;;;;5135413;27;20051;-67
2021/03/29 13:51:31;;;;;;;4.77;1.70;;;;;;;;;;5135315;27;20023;-66
2021/03/29 13:54:06;;;;;;;3.95;1.42;;;;;;;;;;5135838;27;20035;-69
2021/03/29 13:56:32;;;;;;;7.45;3.65;;;;;;;;;;5117269;27;20026;-69
2021/03/29 13:58:58;;;;;;;7.05;2.80;;;;;;;;;;5116761;27;20030;-69
2021/03/29 14:01:24;;;;;;;11.40;2.53;;;;;;;;;;5135622;27;20023;-67
2021/03/29 14:03:50;;;;;;;7.38;2.33;;;;;;;;;;5117049;27;20045;-61
2021/03/29 14:06:16;;;;;;;7.60;2.22;;;;;;;;;;5134629;27;20029;-67
2021/03/29 14:08:42;;;;;;;5.85;2.15;;;;;;;;;;5117277;27;20047;-67
2021/03/29 14:11:08;;;;;;;3.15;1.02;;;;;;;;;;5135032;27;20046;-70
2021/03/29 14:13:35;;;;;;;3.33;2.20;;;;;;;;;;5134145;27;20086;-69
2021/03/29 14:16:01;;;;;;;10.07;3.75;;;;;;;;;;5135207;27;20021;-70
2021/03/29 14:18:27;;;;;;;11.52;4.95;;;;;;;;;;5135192;27;20072;-69
2021/03/29 14:20:53;;;;;;;10.10;5.13;;;;;;;;;;5116375;27;20068;-71
2021/03/29 14:23:19;;;;;;;3.63;2.17;;;;;;;;;;5135110;27;20072;-69
2021/03/29 14:25:46;;;;;;;6.40;2.88;;;;;;;;;;5135127;27;20027;-67
2021/03/29 14:28:12;;;;;;;8.77;3.85;;;;;;;;;;5116043;27;20019;-68
2021/03/29 14:30:38;;;;;;;6.47;2.25;;;;;;;;;;5134982;27;20023;-67
2021/03/29 14:33:05;;;;;;;7.80;2.53;;;;;;;;;;5134479;27;20019;-69
2021/03/29 14:45:55;;;;;;;11.45;3.92;;;;;;;;;;5102003;27;20032;-68
2021/03/29 14:48:21;;;;;;;13.10;4.97;;;;;;;;;;5134633;27;20064;-69
2021/03/29 14:50:47;;;;;;;5.05;1.35;;;;;;;;;;5134732;27;20373;-68
2021/03/29 14:53:13;;;;;;;5.87;1.43;;;;;;;;;;5134143;27;20027;-69
2021/03/29 14:55:40;;;;;;;11.57;2.33;;;;;;;;;;5134379;27;20389;-68